AirNav   Everest Fuels
 
 1550 users online  

7MI0 Kamikaze Run Heliport
Novi, Michigan, USA

GOING TO NOVI?


FAA INFORMATION EFFECTIVE 02 JANUARY 2020

Location

FAA Identifier: 7MI0
Lat/Long: 42-30-50.1210N 083-29-21.7710W
42-30.835350N 083-29.362850W
42.5139225,-83.4893808
(estimated)
Elevation: 935 ft. / 285 m (estimated)
Variation: 06W (1985)
Time zone: UTC -5 (UTC -4 during Daylight Saving Time)
Zip code: 48390

Heliport Operations

Heliport use: Private use. Permission required prior to landing
Activation date: 02/1982
Control tower: no
ARTCC: CLEVELAND CENTER
FSS: LANSING FLIGHT SERVICE STATION
Attendance: UNATNDD
Wind indicator: yes
Segmented circle: no

Heliport Communications

WX ASOS at PTK (10 nm N): 125.025 (248-886-8551)
WX AWOS-3 at VLL (14 nm E): 119.475 (248-288-4649)
WX ASOS at YIP (17 nm S): 132.35 (734-961-6843)
WX ASOS at DTW (19 nm S): 133.675 (734-955-5015)

Nearby radio navigation aids

VOR radial/distance  VOR name  Freq  Var
SVMr039/7.8SALEM VORTAC114.3003W
DXOr349/18.8DETROIT VOR/DME113.4006W
CRLr000/28.0CARLETON VOR/DME115.7003W
FNTr163/29.4FLINT VORTAC116.9006W
YQGr304/33.3WINDSOR VOR/DME113.8006W

 
NDB name  Hdg/Dist  Freq  Var  ID
GROSSE ILE336/28.941907WRYS .-. -.-- ...
TECUMSEH037/33.823906WTCU - -.-. ..-

Heliport Services

Runway Information

Helipad H1

Dimensions: 90 x 50 ft. / 27 x 15 m
Surface: turf
Latitude: 42-30.835350N
Longitude: 083-29.362850W
Elevation: 935.0 ft.
Traffic pattern: leftleft

Heliport Ownership and Management from official FAA records

Ownership: Privately-owned
Owner: A M KOWAL
1185 SO LAKE DRIVE
NOVI, MI 48088
Phone 313-669-1887
Manager: A M KOWAL
1185 SO LAKE DRIVE
NOVI, MI 48088
Phone 313-669-1887

Heliport Operational Statistics

Aircraft based on the field: 1
Helicopters: 1
    

Additional Remarks

FOR CD CTC DETROIT APCH AT 800-499-8181.

Instrument Procedures

There are no published instrument procedures at 7MI0.

Some nearby airports with instrument procedures:

Y47 - Oakland Southwest Airport (6 nm W)
KPTK - Oakland County International Airport (10 nm N)
1D2 - Canton-Plymouth-Mettetal Airport (10 nm S)
KVLL - Oakland/Troy Airport (14 nm E)
KYIP - Willow Run Airport (17 nm S)
KDTW - Detroit Metropolitan Wayne County Airport (19 nm S)
 
Loc | Ops | Rwys | IFR | FBO | Links
Com | Nav | Svcs | Stats | Notes
Area around 7MI0 (Kamikaze Run Heliport)
 
Road maps at: MapQuest Bing Google
 
Aerial photo
No photo
 
Sectional chart

 
Airport distance calculator
Flying to Kamikaze Run Heliport? Find the distance to fly.

From to 7MI0

Sunrise and sunset
Times for 23-Jan-2020
 Local
(UTC-5)
 Zulu
(UTC)
Morning civil twilight07:2712:27
Sunrise07:5712:57
Sunset17:3522:35
Evening civil twilight18:0523:05

Current date and time
Zulu (UTC)  24-Jan-2020 00:04:44
Local (UTC-5)  23-Jan-2020 19:04:44
 
METAR
KPTK 
10nm N 
232353Z 11006KT 10SM OVC080 01/M04 A3015 RMK AO2 SLP221 T00111044 10022 20011 53002
KVLL 
14nm E 
232355Z AUTO 07004KT 10SM OVC075 02/M03 A3019 RMK AO2 T00171028 10028 20017
KYIP 
17nm S 
232353Z 10005KT 10SM SCT100 02/M04 A3017 RMK AO2 SLP223 T00221039 10033 20022 53001
KDTW 
18nm S 
232353Z 08004KT 8SM OVC090 02/M04 A3018 RMK AO2 SLP228 T00171039 10022 20017 53002
TAF
KPTK 
10nm N 
231725Z 2318/2418 16007KT P6SM OVC120 FM240000 12005KT P6SM OVC080 FM240700 09005KT P6SM OVC050 TEMPO 2408/2412 P6SM -RASN OVC025 FM241500 08010KT 5SM -RA BR OVC025
KYIP 
17nm S 
232139Z 2322/2418 14007KT P6SM OVC100 FM240000 12005KT P6SM OVC080 FM240700 09005KT P6SM OVC050 TEMPO 2408/2412 P6SM -SHRA OVC025 FM241400 08010KT 5SM -RA BR OVC025
KDTW 
18nm S 
232139Z 2322/2424 15007KT P6SM OVC100 FM240000 12005KT P6SM OVC080 FM240700 09005KT P6SM OVC050 TEMPO 2408/2412 P6SM -SHRA OVC025 FM241400 08010KT 5SM -RA BR OVC025 FM242100 09008KT 2SM -RA BR OVC015
NOTAMs
Click for the latest NOTAMs
NOTAMs are issued by the DoD/FAA and will open in a separate window not controlled by AirNav.

 

 
 

Would you like to see your business listed on this page?

 If your business provides an interesting product or service to pilots, flight crews, aircraft, or users of the Kamikaze Run Heliport, you should consider listing it here.  To start the listing process, click on the button below
 
Add a business
 

Other Pages about Kamikaze Run Heliport

Update a link
 
Copyright © AirNav, LLC. All rights reserved. Privacy Policy  Contact